Time;durP1;ratioP1;P1;durP2;ratioP2;P2;SDS_P1;SDS_P2;PMS_P1;PMS_P2;Temp;Humidity;BMP_temperature;BMP_pressure;BME280_temperature;BME280_humidity;BME280_pressure;Samples;Min_cycle;Max_cycle;Signal;HPM_P1;HPM_P2
2022/08/01 00:00:42;;;;;;;1.70;1.60;;;20.50;99.90;;;;;;493284;241;28718;-67
2022/08/01 00:02:43;;;;;;;1.90;1.80;;;20.50;99.90;;;;;;493272;241;28730;-68
2022/08/01 00:04:44;;;;;;;2.10;2.00;;;20.50;99.90;;;;;;493267;241;28695;-71
2022/08/01 00:06:46;;;;;;;1.93;1.83;;;20.50;99.90;;;;;;493225;241;28682;-69
2022/08/01 00:08:47;;;;;;;1.80;1.70;;;20.50;99.90;;;;;;493290;241;28785;-69
2022/08/01 00:10:48;;;;;;;1.90;1.80;;;20.50;99.90;;;;;;493290;241;28751;-69
2022/08/01 00:12:49;;;;;;;1.80;1.70;;;20.40;99.90;;;;;;493291;241;28738;-69
2022/08/01 00:14:51;;;;;;;1.80;1.70;;;20.40;99.90;;;;;;493312;241;28834;-71
2022/08/01 00:16:52;;;;;;;1.90;1.80;;;20.40;99.90;;;;;;493221;241;29201;-68
2022/08/01 00:18:53;;;;;;;1.77;1.67;;;20.40;99.90;;;;;;493278;241;29198;-69
2022/08/01 00:20:54;;;;;;;1.70;1.60;;;20.40;99.90;;;;;;493289;241;29276;-68
2022/08/01 00:22:56;;;;;;;1.90;1.80;;;20.20;99.90;;;;;;493277;241;28667;-68
2022/08/01 00:24:57;;;;;;;1.53;1.43;;;20.30;99.90;;;;;;493312;241;28690;-72
2022/08/01 00:26:58;;;;;;;1.73;1.63;;;20.20;99.90;;;;;;493197;241;28671;-68
2022/08/01 00:28:59;;;;;;;1.70;1.60;;;20.20;99.90;;;;;;493271;241;28683;-69
2022/08/01 00:31:01;;;;;;;1.70;1.60;;;20.20;99.90;;;;;;493264;241;28738;-68
2022/08/01 00:33:02;;;;;;;1.90;1.80;;;20.10;99.90;;;;;;493281;241;28799;-69
2022/08/01 00:35:03;;;;;;;1.70;1.60;;;20.10;99.90;;;;;;493195;241;28809;-70
2022/08/01 00:37:04;;;;;;;1.70;1.60;;;20.10;99.90;;;;;;493192;241;28675;-68
2022/08/01 00:39:06;;;;;;;1.70;1.60;;;20.00;99.90;;;;;;493267;241;28710;-69
2022/08/01 00:41:07;;;;;;;2.33;1.70;;;20.10;99.90;;;;;;493264;241;29115;-68
2022/08/01 00:43:08;;;;;;;1.77;1.67;;;20.00;99.90;;;;;;493271;241;29286;-69
2022/08/01 00:45:09;;;;;;;1.67;1.57;;;20.00;99.90;;;;;;493296;241;29173;-78
2022/08/01 00:47:11;;;;;;;2.00;1.90;;;20.00;99.90;;;;;;493204;241;28695;-68
2022/08/01 00:49:12;;;;;;;1.70;1.60;;;20.00;99.90;;;;;;493258;241;28763;-69
2022/08/01 00:51:13;;;;;;;2.50;1.70;;;20.10;99.90;;;;;;493158;241;28658;-68
2022/08/01 00:53:14;;;;;;;1.77;1.67;;;20.00;99.90;;;;;;493241;241;28766;-69
2022/08/01 00:55:16;;;;;;;2.50;1.50;;;20.00;99.90;;;;;;493285;241;28698;-72
2022/08/01 00:57:17;;;;;;;1.60;1.50;;;20.10;99.90;;;;;;493213;241;28686;-69
2022/08/01 00:59:18;;;;;;;1.80;1.70;;;20.10;99.90;;;;;;493263;241;28713;-68
2022/08/01 01:01:23;;;;;;;1.67;1.33;;;20.10;99.90;;;;;;493254;241;28765;-69
2022/08/01 01:03:24;;;;;;;1.83;1.57;;;20.00;99.90;;;;;;493284;241;28770;-72
2022/08/01 01:05:25;;;;;;;1.50;1.40;;;20.00;99.90;;;;;;493264;241;28738;-69
2022/08/01 01:07:26;;;;;;;1.40;1.40;;;20.00;99.90;;;;;;493209;241;28704;-69
2022/08/01 01:09:28;;;;;;;2.40;1.50;;;20.00;99.90;;;;;;493210;241;28661;-69
2022/08/01 01:11:29;;;;;;;1.77;1.60;;;20.00;99.90;;;;;;493287;241;28693;-69
2022/08/01 01:13:30;;;;;;;1.40;1.37;;;20.00;99.90;;;;;;493283;241;28715;-72
2022/08/01 01:15:33;;;;;;;1.30;1.30;;;20.00;99.90;;;;;;493284;241;28716;-69
2022/08/01 01:17:33;;;;;;;1.60;1.50;;;20.00;99.90;;;;;;493061;241;28711;-70
2022/08/01 01:19:34;;;;;;;2.30;1.57;;;20.00;99.90;;;;;;493253;241;29149;-68
2022/08/01 01:21:35;;;;;;;1.60;1.50;;;19.90;99.90;;;;;;493268;241;29166;-68
2022/08/01 01:23:36;;;;;;;1.40;1.30;;;19.90;99.90;;;;;;493276;241;29191;-72
2022/08/01 01:25:38;;;;;;;2.10;1.37;;;19.90;99.90;;;;;;493302;241;29130;-69
2022/08/01 01:27:39;;;;;;;3.60;1.50;;;19.90;99.90;;;;;;493235;241;28780;-70
2022/08/01 01:29:40;;;;;;;1.50;1.40;;;19.90;99.90;;;;;;493269;241;28665;-68
2022/08/01 01:31:41;;;;;;;1.70;1.60;;;19.80;99.90;;;;;;493259;241;28720;-69
2022/08/01 01:33:43;;;;;;;1.60;1.50;;;19.80;99.90;;;;;;493282;241;28778;-71
2022/08/01 01:35:44;;;;;;;1.90;1.80;;;19.80;99.90;;;;;;493182;241;28729;-70
2022/08/01 01:37:45;;;;;;;1.30;1.30;;;19.80;99.90;;;;;;493117;241;28770;-69
2022/08/01 01:39:46;;;;;;;1.20;1.20;;;19.70;99.90;;;;;;493254;241;28657;-68
2022/08/01 01:41:48;;;;;;;1.40;1.40;;;19.70;99.90;;;;;;493257;241;28707;-68
2022/08/01 01:43:49;;;;;;;1.50;1.40;;;19.70;99.90;;;;;;493273;241;28705;-72
2022/08/01 01:45:50;;;;;;;1.63;1.53;;;19.60;99.90;;;;;;493227;241;29117;-68
2022/08/01 01:47:51;;;;;;;1.73;1.63;;;19.60;99.90;;;;;;493226;241;29262;-70
2022/08/01 01:49:53;;;;;;;1.50;1.40;;;19.50;99.90;;;;;;493302;241;29132;-68
2022/08/01 01:51:54;;;;;;;1.80;1.70;;;19.40;99.90;;;;;;493267;241;28828;-68
2022/08/01 01:53:55;;;;;;;1.37;1.37;;;19.50;99.90;;;;;;493293;241;28787;-73
2022/08/01 01:55:57;;;;;;;1.67;1.57;;;19.50;99.90;;;;;;493269;241;28673;-68
2022/08/01 01:57:58;;;;;;;1.50;1.40;;;19.30;99.90;;;;;;493160;241;28687;-70
2022/08/01 01:59:59;;;;;;;1.80;1.70;;;19.30;99.90;;;;;;493085;241;28732;-68
2022/08/01 02:02:00;;;;;;;1.63;1.53;;;19.20;99.90;;;;;;493058;241;28757;-68
2022/08/01 02:04:03;;;;;;;1.50;1.40;;;19.10;99.90;;;;;;493210;241;28868;-72
2022/08/01 02:06:04;;;;;;;1.37;1.30;;;19.10;99.90;;;;;;493245;241;29176;-69
2022/08/01 02:08:05;;;;;;;1.70;1.60;;;19.00;99.90;;;;;;493237;241;28673;-68
2022/08/01 02:10:07;;;;;;;1.60;1.50;;;19.00;99.90;;;;;;493284;241;29182;-70
2022/08/01 02:12:08;;;;;;;1.37;1.37;;;19.00;99.90;;;;;;493284;241;29202;-71
2022/08/01 02:14:09;;;;;;;1.50;1.40;;;19.00;99.90;;;;;;493303;241;29233;-68
2022/08/01 02:16:11;;;;;;;1.40;1.40;;;19.00;99.90;;;;;;493228;241;29269;-70
2022/08/01 02:18:12;;;;;;;1.60;1.50;;;18.90;99.90;;;;;;493259;241;28692;-68
2022/08/01 02:20:13;;;;;;;1.73;1.63;;;18.90;99.90;;;;;;493269;241;28696;-68
2022/08/01 02:22:14;;;;;;;1.80;1.70;;;18.90;99.90;;;;;;493295;241;28774;-72
2022/08/01 02:24:15;;;;;;;1.70;1.60;;;18.80;99.90;;;;;;493272;241;28668;-69
2022/08/01 02:26:17;;;;;;;1.53;1.43;;;18.60;99.90;;;;;;493182;241;28809;-69
2022/08/01 02:28:18;;;;;;;1.60;1.50;;;18.60;99.90;;;;;;493281;241;28662;-69
2022/08/01 02:30:19;;;;;;;1.77;1.67;;;18.60;99.90;;;;;;493269;241;28779;-69
2022/08/01 02:32:20;;;;;;;1.77;1.67;;;18.60;99.90;;;;;;493309;241;28710;-70
2022/08/01 02:34:22;;;;;;;1.87;1.77;;;18.60;99.90;;;;;;493288;241;29167;-68
2022/08/01 02:36:23;;;;;;;1.80;1.70;;;18.60;99.90;;;;;;493087;241;29177;-69
2022/08/01 02:38:24;;;;;;;1.83;1.70;;;18.60;99.90;;;;;;493268;241;29129;-68
2022/08/01 02:40:25;;;;;;;1.60;1.50;;;18.60;99.90;;;;;;493242;241;29281;-69
2022/08/01 02:42:27;;;;;;;1.60;1.50;;;18.60;99.90;;;;;;493270;241;28743;-71
2022/08/01 02:44:28;;;;;;;1.57;1.43;;;18.50;99.90;;;;;;493281;241;28750;-68
2022/08/01 02:46:29;;;;;;;1.40;1.40;;;18.50;99.90;;;;;;493234;241;28741;-70
2022/08/01 02:48:30;;;;;;;1.57;1.50;;;18.50;99.90;;;;;;493250;241;28673;-67
2022/08/01 02:50:32;;;;;;;1.40;1.40;;;18.40;99.90;;;;;;493229;241;28744;-68
2022/08/01 02:52:33;;;;;;;1.60;1.50;;;18.30;99.90;;;;;;493280;241;29099;-71
2022/08/01 02:54:34;;;;;;;1.50;1.40;;;18.20;99.90;;;;;;493242;241;28678;-69
2022/08/01 02:56:35;;;;;;;1.53;1.43;;;18.20;99.90;;;;;;493204;241;28713;-70
2022/08/01 02:58:37;;;;;;;1.60;1.53;;;18.10;99.90;;;;;;493254;241;28719;-67
2022/08/01 03:00:38;;;;;;;4.60;1.53;;;18.10;99.90;;;;;;493253;241;29265;-68
2022/08/01 03:02:39;;;;;;;1.90;1.80;;;18.00;99.90;;;;;;493276;241;29274;-70
2022/08/01 03:04:41;;;;;;;2.10;2.00;;;18.00;99.90;;;;;;493266;241;29308;-68
2022/08/01 03:06:42;;;;;;;1.90;1.80;;;18.00;99.90;;;;;;493196;241;28794;-69
2022/08/01 03:08:43;;;;;;;2.07;1.97;;;18.00;99.90;;;;;;493219;241;28659;-68
2022/08/01 03:10:44;;;;;;;2.17;2.07;;;17.70;99.90;;;;;;493248;241;28687;-69
2022/08/01 03:12:45;;;;;;;3.00;2.03;;;17.80;99.90;;;;;;493274;241;28796;-71
2022/08/01 03:14:47;;;;;;;2.17;2.07;;;17.80;99.90;;;;;;493267;241;28659;-69
2022/08/01 03:16:48;;;;;;;1.80;1.70;;;17.90;99.90;;;;;;493199;241;28834;-70
2022/08/01 03:18:49;;;;;;;1.80;1.70;;;18.00;99.90;;;;;;493286;241;29137;-68
2022/08/01 03:20:50;;;;;;;1.67;1.57;;;17.90;99.90;;;;;;493301;241;28680;-68
2022/08/01 03:22:52;;;;;;;1.70;1.60;;;17.90;99.90;;;;;;493279;241;28751;-71
2022/08/01 03:24:53;;;;;;;1.80;1.70;;;17.90;99.90;;;;;;493305;241;29209;-68
2022/08/01 03:26:54;;;;;;;2.27;1.70;;;18.00;99.90;;;;;;493184;241;29202;-68
2022/08/01 03:28:56;;;;;;;1.70;1.60;;;18.00;99.90;;;;;;493287;241;30029;-68
2022/08/01 03:30:57;;;;;;;1.90;1.80;;;18.00;99.90;;;;;;493315;241;29204;-68
2022/08/01 03:32:58;;;;;;;1.80;1.70;;;18.00;99.90;;;;;;493336;241;28774;-71
2022/08/01 03:34:59;;;;;;;1.70;1.60;;;18.00;99.90;;;;;;493240;241;28734;-68
2022/08/01 03:37:00;;;;;;;1.73;1.63;;;18.00;99.90;;;;;;492995;241;28714;-68
2022/08/01 03:39:02;;;;;;;1.97;1.87;;;17.90;99.90;;;;;;493290;241;28808;-68
2022/08/01 03:41:04;;;;;;;1.77;1.67;;;17.80;99.90;;;;;;493312;241;28751;-69
2022/08/01 03:43:04;;;;;;;1.67;1.57;;;17.80;99.90;;;;;;493334;241;28714;-71
2022/08/01 03:45:05;;;;;;;1.90;1.80;;;17.80;99.90;;;;;;493328;241;28752;-68
2022/08/01 03:47:08;;;;;;;1.93;1.83;;;17.70;99.90;;;;;;493160;241;28707;-69
2022/08/01 03:49:08;;;;;;;1.73;1.63;;;17.70;99.90;;;;;;493229;241;29134;-68
2022/08/01 03:51:09;;;;;;;1.83;1.73;;;17.60;99.90;;;;;;493300;241;29106;-68
2022/08/01 03:53:10;;;;;;;2.10;1.93;;;17.60;99.90;;;;;;493321;241;29261;-72
2022/08/01 03:55:12;;;;;;;1.80;1.70;;;17.50;99.90;;;;;;493304;241;29181;-69
2022/08/01 03:57:13;;;;;;;1.90;1.80;;;17.50;99.90;;;;;;493194;241;28703;-70
2022/08/01 03:59:14;;;;;;;1.73;1.63;;;17.50;99.90;;;;;;493280;241;28675;-68
2022/08/01 04:01:15;;;;;;;2.20;2.10;;;17.40;99.90;;;;;;493317;241;28759;-68
2022/08/01 04:03:17;;;;;;;2.30;2.10;;;17.20;99.90;;;;;;493288;241;28707;-71
2022/08/01 04:05:18;;;;;;;2.10;2.00;;;17.10;99.90;;;;;;493292;241;28659;-68
2022/08/01 04:07:19;;;;;;;2.27;2.00;;;17.10;99.90;;;;;;493190;241;28714;-68
2022/08/01 04:09:21;;;;;;;1.97;1.87;;;17.20;99.90;;;;;;493300;241;28752;-68
2022/08/01 04:11:22;;;;;;;2.13;2.03;;;17.20;99.90;;;;;;493274;241;28702;-68
2022/08/01 04:13:23;;;;;;;1.87;1.77;;;17.30;99.90;;;;;;493330;241;28708;-68
2022/08/01 04:15:24;;;;;;;2.13;2.00;;;17.30;99.90;;;;;;493311;241;29231;-68
2022/08/01 04:17:25;;;;;;;2.80;2.00;;;17.30;99.90;;;;;;493097;241;29158;-69
2022/08/01 04:19:27;;;;;;;1.80;1.70;;;17.40;99.90;;;;;;493305;241;29108;-68
2022/08/01 04:21:28;;;;;;;1.70;1.60;;;17.40;99.90;;;;;;493310;241;28680;-68
2022/08/01 04:23:29;;;;;;;1.70;1.60;;;17.40;99.90;;;;;;493299;241;28703;-73
2022/08/01 04:25:31;;;;;;;1.83;1.73;;;17.40;99.90;;;;;;493229;241;28781;-69
2022/08/01 04:27:32;;;;;;;1.57;1.57;;;17.40;99.90;;;;;;493160;241;28730;-68
2022/08/01 04:29:34;;;;;;;2.10;1.93;;;17.40;99.90;;;;;;493262;241;28656;-68
2022/08/01 04:31:34;;;;;;;2.20;1.70;;;17.40;99.90;;;;;;493219;241;28750;-70
2022/08/01 04:33:39;;;;;;;1.70;1.60;;;17.40;99.90;;;;;;493291;241;28793;-70
2022/08/01 04:35:37;;;;;;;2.10;2.00;;;17.40;99.90;;;;;;493011;241;28776;-68
2022/08/01 04:37:38;;;;;;;1.73;1.63;;;17.40;99.90;;;;;;493067;241;28742;-68
2022/08/01 04:39:39;;;;;;;1.60;1.50;;;17.40;99.90;;;;;;493269;241;30201;-68
2022/08/01 04:41:41;;;;;;;1.60;1.50;;;17.40;99.90;;;;;;493279;241;29153;-68
2022/08/01 04:43:42;;;;;;;1.70;1.60;;;17.40;99.90;;;;;;493283;241;29189;-70
2022/08/01 04:45:43;;;;;;;1.80;1.70;;;17.40;99.90;;;;;;493287;241;29236;-68
2022/08/01 04:47:44;;;;;;;1.97;1.77;;;17.40;99.90;;;;;;493161;241;28777;-69
2022/08/01 04:49:46;;;;;;;1.83;1.73;;;17.40;99.90;;;;;;493275;241;28714;-68
2022/08/01 04:51:47;;;;;;;1.90;1.80;;;17.40;99.90;;;;;;493295;241;28762;-69
2022/08/01 04:53:48;;;;;;;1.80;1.70;;;17.40;99.90;;;;;;493295;241;28724;-71
2022/08/01 04:55:49;;;;;;;1.77;1.67;;;17.40;99.90;;;;;;493244;241;28759;-68
2022/08/01 04:57:51;;;;;;;1.87;1.70;;;17.40;99.90;;;;;;493179;241;28715;-69
2022/08/01 04:59:56;;;;;;;1.70;1.60;;;17.50;99.90;;;;;;493256;241;28711;-70
2022/08/01 05:01:53;;;;;;;1.90;1.80;;;17.50;99.90;;;;;;492924;241;28690;-69
2022/08/01 05:03:54;;;;;;;1.93;1.83;;;17.50;99.90;;;;;;493298;241;29186;-71
2022/08/01 05:05:56;;;;;;;2.20;2.10;;;17.60;99.90;;;;;;493246;241;29230;-68
2022/08/01 05:07:57;;;;;;;2.20;2.10;;;17.70;99.90;;;;;;493220;241;29246;-69
2022/08/01 05:09:58;;;;;;;2.40;2.20;;;17.80;99.90;;;;;;493270;241;29125;-68
2022/08/01 05:12:00;;;;;;;1.90;1.80;;;17.90;99.90;;;;;;493281;241;28769;-69
2022/08/01 05:14:01;;;;;;;2.20;2.10;;;17.90;99.90;;;;;;493238;241;28777;-71
2022/08/01 05:16:03;;;;;;;2.20;2.10;;;17.90;99.90;;;;;;493243;241;28790;-69
2022/08/01 05:18:03;;;;;;;2.23;2.13;;;18.00;99.90;;;;;;493146;241;28707;-70
2022/08/01 05:20:06;;;;;;;1.90;1.80;;;18.00;99.90;;;;;;493253;241;28668;-68
2022/08/01 05:22:06;;;;;;;2.20;2.10;;;18.00;99.90;;;;;;493184;241;28691;-68
2022/08/01 05:24:07;;;;;;;2.13;2.00;;;18.10;99.90;;;;;;493284;241;28782;-71
2022/08/01 05:26:08;;;;;;;2.20;2.10;;;18.20;99.90;;;;;;493213;241;28668;-68
2022/08/01 05:28:09;;;;;;;1.90;1.80;;;18.20;99.90;;;;;;493286;241;28702;-68
2022/08/01 05:30:11;;;;;;;2.10;1.90;;;18.30;99.90;;;;;;493287;241;29922;-68
2022/08/01 05:32:12;;;;;;;2.20;2.10;;;18.50;99.90;;;;;;493265;241;29214;-69
2022/08/01 05:34:14;;;;;;;1.90;1.80;;;18.50;99.90;;;;;;493292;241;29223;-71
2022/08/01 05:36:14;;;;;;;1.93;1.83;;;18.60;99.90;;;;;;492955;241;28684;-68
2022/08/01 05:38:16;;;;;;;2.23;2.13;;;18.70;99.90;;;;;;493250;241;28794;-68
2022/08/01 05:40:17;;;;;;;1.90;1.80;;;18.80;99.90;;;;;;493246;241;28659;-68
2022/08/01 05:42:18;;;;;;;1.90;1.80;;;18.90;99.90;;;;;;493286;241;28667;-68
2022/08/01 05:44:19;;;;;;;2.63;2.07;;;19.00;99.90;;;;;;493289;241;28706;-71
2022/08/01 05:46:21;;;;;;;2.10;2.00;;;19.10;99.90;;;;;;493214;241;29179;-69
2022/08/01 05:48:22;;;;;;;2.20;2.10;;;19.10;99.90;;;;;;493277;241;28746;-69
2022/08/01 05:50:23;;;;;;;1.97;1.87;;;19.20;99.90;;;;;;493256;241;28753;-69
2022/08/01 05:52:24;;;;;;;2.17;2.00;;;19.30;99.90;;;;;;493272;241;28744;-69
2022/08/01 05:54:26;;;;;;;2.00;1.90;;;19.40;99.90;;;;;;493289;241;29214;-71
2022/08/01 05:56:27;;;;;;;2.37;2.17;;;19.40;99.90;;;;;;493226;241;29277;-68
2022/08/01 05:58:28;;;;;;;2.27;2.17;;;19.40;99.90;;;;;;493284;241;29281;-69
2022/08/01 06:00:29;;;;;;;2.00;1.90;;;19.40;99.90;;;;;;493255;241;29123;-68
2022/08/01 06:02:31;;;;;;;2.17;2.07;;;19.40;99.90;;;;;;493277;241;28676;-68
2022/08/01 06:04:32;;;;;;;2.40;2.23;;;19.40;99.90;;;;;;493278;241;28718;-72
2022/08/01 06:06:33;;;;;;;2.23;2.13;;;19.40;99.90;;;;;;493220;241;28759;-69
2022/08/01 06:08:34;;;;;;;2.10;2.00;;;19.40;99.90;;;;;;493245;241;28727;-68
2022/08/01 06:10:36;;;;;;;1.90;1.80;;;19.40;99.90;;;;;;493287;241;28679;-69
2022/08/01 06:12:37;;;;;;;1.93;1.83;;;19.50;99.90;;;;;;493282;241;28686;-69
2022/08/01 06:14:38;;;;;;;2.00;1.90;;;19.40;99.90;;;;;;493286;241;28708;-71
2022/08/01 06:16:39;;;;;;;2.00;1.90;;;19.40;99.90;;;;;;493221;241;28680;-69
2022/08/01 06:18:41;;;;;;;2.30;1.77;;;19.40;99.90;;;;;;493250;241;29179;-73
2022/08/01 06:20:42;;;;;;;1.90;1.80;;;19.50;99.90;;;;;;493242;241;29305;-69
2022/08/01 06:22:43;;;;;;;1.70;1.60;;;19.50;99.90;;;;;;493263;241;29225;-68
2022/08/01 06:24:44;;;;;;;1.67;1.57;;;19.50;99.90;;;;;;493306;241;29291;-72
2022/08/01 06:26:46;;;;;;;3.17;2.20;;;19.50;99.90;;;;;;493205;241;28670;-69
2022/08/01 06:28:47;;;;;;;1.70;1.60;;;19.60;99.90;;;;;;493261;241;28701;-70
2022/08/01 06:30:48;;;;;;;1.90;1.80;;;19.60;99.90;;;;;;493234;241;28659;-68
2022/08/01 06:32:49;;;;;;;1.97;1.87;;;19.60;99.90;;;;;;493277;241;28691;-69
2022/08/01 06:34:51;;;;;;;1.80;1.70;;;19.70;99.90;;;;;;493262;241;28710;-72
2022/08/01 06:36:52;;;;;;;1.70;1.60;;;19.70;99.90;;;;;;493202;241;28714;-69
2022/08/01 06:38:53;;;;;;;3.40;1.90;;;19.70;99.90;;;;;;493241;241;28731;-69
2022/08/01 06:40:54;;;;;;;2.20;1.90;;;19.70;99.90;;;;;;493254;241;28701;-68
2022/08/01 06:42:56;;;;;;;1.90;1.80;;;19.70;99.90;;;;;;493219;241;28671;-69
2022/08/01 06:44:57;;;;;;;1.80;1.70;;;19.60;99.90;;;;;;493271;241;29278;-73
2022/08/01 06:47:01;;;;;;;1.83;1.67;;;19.70;99.90;;;;;;493215;241;29127;-68
2022/08/01 06:49:02;;;;;;;1.90;1.73;;;19.80;99.90;;;;;;493214;241;29194;-69
2022/08/01 06:51:13;;;;;;;1.90;1.80;;;19.80;99.90;;;;;;493256;241;29270;-69
2022/08/01 06:53:11;;;;;;;1.90;1.80;;;19.80;99.90;;;;;;492848;241;29120;-69
2022/08/01 06:55:12;;;;;;;1.70;1.60;;;19.80;99.90;;;;;;493149;241;29288;-68
2022/08/01 06:57:13;;;;;;;1.67;1.57;;;19.80;99.90;;;;;;493208;241;29181;-72
2022/08/01 06:59:14;;;;;;;1.63;1.63;;;19.80;99.90;;;;;;493286;241;28719;-68
2022/08/01 07:01:16;;;;;;;1.90;1.80;;;19.80;99.90;;;;;;493239;241;28706;-70
2022/08/01 07:03:17;;;;;;;1.90;1.80;;;19.80;99.90;;;;;;493239;241;28759;-69
2022/08/01 07:05:18;;;;;;;1.70;1.60;;;19.90;99.90;;;;;;493200;241;28709;-69
2022/08/01 07:07:19;;;;;;;1.73;1.63;;;20.00;99.90;;;;;;493210;241;28715;-73
2022/08/01 07:09:21;;;;;;;1.60;1.50;;;20.10;99.90;;;;;;493252;241;28761;-69
2022/08/01 07:11:22;;;;;;;2.10;1.90;;;20.10;99.90;;;;;;493258;241;28717;-70
2022/08/01 07:13:24;;;;;;;1.97;1.87;;;20.10;99.90;;;;;;493263;241;28696;-69
2022/08/01 07:15:26;;;;;;;1.80;1.70;;;20.00;99.90;;;;;;493177;241;28704;-69
2022/08/01 07:17:26;;;;;;;3.10;1.80;;;20.00;99.90;;;;;;493135;241;29303;-72
2022/08/01 07:19:27;;;;;;;1.70;1.60;;;20.10;99.90;;;;;;493269;241;29184;-69
2022/08/01 07:21:28;;;;;;;1.80;1.70;;;20.20;99.90;;;;;;493244;241;29249;-69
2022/08/01 07:23:29;;;;;;;1.73;1.63;;;20.30;99.90;;;;;;493249;241;28777;-69
2022/08/01 07:25:31;;;;;;;1.83;1.73;;;20.30;99.90;;;;;;493230;241;28786;-69
2022/08/01 07:27:32;;;;;;;1.53;1.53;;;20.30;99.90;;;;;;493245;241;28714;-71
2022/08/01 07:29:33;;;;;;;2.03;1.93;;;20.40;99.90;;;;;;493285;241;28681;-69
2022/08/01 07:31:34;;;;;;;1.77;1.67;;;20.40;99.90;;;;;;493257;241;28775;-71
2022/08/01 07:33:36;;;;;;;2.03;1.90;;;20.50;99.90;;;;;;493216;241;28684;-69
2022/08/01 07:35:40;;;;;;;1.90;1.80;;;20.50;99.90;;;;;;493056;241;28791;-69
2022/08/01 07:37:41;;;;;;;1.90;1.80;;;20.60;99.90;;;;;;493185;241;28720;-69
2022/08/01 07:39:42;;;;;;;1.87;1.77;;;20.60;99.90;;;;;;493258;241;28802;-69
2022/08/01 07:41:43;;;;;;;1.83;1.73;;;20.70;99.90;;;;;;493275;241;28735;-69
2022/08/01 07:43:45;;;;;;;1.80;1.70;;;20.70;99.90;;;;;;493258;241;28794;-71
2022/08/01 07:45:46;;;;;;;2.20;2.10;;;20.70;99.90;;;;;;493238;241;28726;-68
2022/08/01 07:47:49;;;;;;;1.73;1.63;;;20.70;99.90;;;;;;493183;241;29329;-70
2022/08/01 07:49:48;;;;;;;2.13;2.03;;;20.90;99.90;;;;;;493155;241;29459;-69
2022/08/01 07:51:50;;;;;;;2.67;2.40;;;21.00;99.90;;;;;;493271;241;29118;-70
2022/08/01 07:53:51;;;;;;;2.10;2.00;;;21.00;99.90;;;;;;493239;241;29174;-70
2022/08/01 07:55:52;;;;;;;2.77;2.57;;;21.10;99.90;;;;;;493273;241;28802;-69
2022/08/01 07:57:53;;;;;;;2.27;2.03;;;21.20;99.90;;;;;;493220;241;28786;-69
2022/08/01 07:59:55;;;;;;;1.90;1.80;;;21.20;99.90;;;;;;493275;241;28742;-74
2022/08/01 08:01:56;;;;;;;1.70;1.60;;;21.30;99.90;;;;;;493266;241;28680;-69
2022/08/01 08:03:57;;;;;;;2.20;2.10;;;21.40;99.90;;;;;;493262;241;28707;-70
2022/08/01 08:05:58;;;;;;;1.93;1.83;;;21.50;99.90;;;;;;493261;241;28683;-70
2022/08/01 08:08:00;;;;;;;1.93;1.83;;;21.50;99.90;;;;;;493240;241;28771;-69
2022/08/01 08:10:01;;;;;;;1.73;1.63;;;21.60;99.90;;;;;;493302;241;28790;-72
2022/08/01 08:12:02;;;;;;;2.10;2.00;;;21.70;99.90;;;;;;493295;241;29239;-69
2022/08/01 08:14:03;;;;;;;1.60;1.50;;;21.90;99.90;;;;;;493269;241;29191;-70
2022/08/01 08:16:05;;;;;;;2.20;2.10;;;22.10;99.90;;;;;;493187;241;29168;-70
2022/08/01 08:18:06;;;;;;;1.60;1.50;;;22.10;99.90;;;;;;493246;241;29284;-70
2022/08/01 08:20:07;;;;;;;3.13;1.97;;;22.10;99.90;;;;;;493261;241;28703;-72
2022/08/01 08:22:08;;;;;;;1.90;1.80;;;22.10;99.90;;;;;;493287;241;28672;-69
2022/08/01 08:24:26;;;;;;;1.80;1.70;;;22.10;99.90;;;;;;493284;241;28784;-69
2022/08/01 08:26:24;;;;;;;1.97;1.87;;;22.20;99.90;;;;;;492969;241;29295;-69
2022/08/01 08:28:24;;;;;;;1.70;1.60;;;22.30;99.90;;;;;;493274;241;29215;-69
2022/08/01 08:30:26;;;;;;;1.70;1.60;;;22.40;99.90;;;;;;493284;241;28707;-72
2022/08/01 08:32:27;;;;;;;1.90;1.80;;;22.30;99.90;;;;;;493266;241;28752;-69
2022/08/01 08:34:28;;;;;;;2.30;2.20;;;22.20;99.90;;;;;;493271;241;28695;-70
2022/08/01 08:36:29;;;;;;;2.20;1.80;;;22.40;99.90;;;;;;493050;241;28667;-69
2022/08/01 08:38:31;;;;;;;2.10;2.00;;;22.50;99.90;;;;;;493295;241;28691;-69
2022/08/01 08:40:32;;;;;;;1.87;1.77;;;22.60;99.90;;;;;;493205;241;28790;-72
2022/08/01 08:42:33;;;;;;;1.80;1.70;;;22.70;99.90;;;;;;493089;241;28718;-69
2022/08/01 08:44:34;;;;;;;2.00;1.80;;;22.80;99.90;;;;;;493030;241;28793;-69
2022/08/01 08:46:36;;;;;;;2.20;2.00;;;22.90;99.90;;;;;;493111;241;28715;-72
2022/08/01 08:48:37;;;;;;;1.80;1.70;;;22.90;99.90;;;;;;493281;241;29162;-69
2022/08/01 08:50:38;;;;;;;1.90;1.80;;;22.90;99.90;;;;;;493273;241;29229;-70
2022/08/01 08:52:39;;;;;;;1.90;1.80;;;22.80;99.90;;;;;;493253;241;29195;-69
2022/08/01 08:54:41;;;;;;;1.77;1.67;;;22.80;99.90;;;;;;493244;241;29186;-70
2022/08/01 08:56:42;;;;;;;1.70;1.60;;;22.70;99.90;;;;;;493216;241;28708;-72
2022/08/01 08:58:43;;;;;;;2.00;1.70;;;22.70;99.90;;;;;;493296;241;28727;-69
2022/08/01 09:00:44;;;;;;;1.87;1.77;;;22.70;99.90;;;;;;493248;241;28710;-71
2022/08/01 09:02:46;;;;;;;1.93;1.83;;;22.90;99.90;;;;;;493191;241;28660;-69
2022/08/01 09:04:47;;;;;;;2.07;1.87;;;22.90;99.90;;;;;;493275;241;28794;-69
2022/08/01 09:06:48;;;;;;;1.70;1.60;;;22.90;99.90;;;;;;493085;241;28711;-73
2022/08/01 09:08:49;;;;;;;2.53;1.80;;;22.80;99.90;;;;;;492889;241;28716;-69
2022/08/01 09:10:51;;;;;;;1.67;1.57;;;22.80;99.90;;;;;;493289;241;28698;-69
2022/08/01 09:12:52;;;;;;;2.10;1.90;;;22.80;99.90;;;;;;493265;241;29144;-69
2022/08/01 09:14:53;;;;;;;1.70;1.60;;;22.80;99.90;;;;;;493252;241;29207;-71
2022/08/01 09:16:54;;;;;;;1.60;1.50;;;22.90;99.90;;;;;;493233;241;29428;-73
2022/08/01 09:18:56;;;;;;;1.60;1.50;;;22.90;99.90;;;;;;493319;241;29137;-69
2022/08/01 09:20:57;;;;;;;1.40;1.30;;;23.20;99.90;;;;;;493294;241;28790;-70
2022/08/01 09:22:58;;;;;;;1.70;1.60;;;23.30;99.90;;;;;;493284;241;28661;-69
2022/08/01 09:24:59;;;;;;;1.73;1.63;;;23.20;99.90;;;;;;493276;241;28801;-69
2022/08/01 09:27:01;;;;;;;1.40;1.30;;;23.30;99.90;;;;;;493228;241;28817;-69
2022/08/01 09:29:02;;;;;;;1.60;1.40;;;23.30;99.90;;;;;;489760;241;35849;-70
2022/08/01 09:31:03;;;;;;;1.17;1.17;;;23.40;99.90;;;;;;493224;241;27404;-70
2022/08/01 09:33:04;;;;;;;2.30;1.27;;;23.50;99.90;;;;;;493267;241;28660;-70
2022/08/01 09:35:06;;;;;;;1.47;1.37;;;23.60;99.90;;;;;;493108;241;28756;-70
2022/08/01 09:37:07;;;;;;;1.10;1.10;;;23.60;99.90;;;;;;493179;241;29722;-69
2022/08/01 09:39:08;;;;;;;1.47;1.40;;;23.50;99.90;;;;;;493286;241;29161;-70
2022/08/01 09:41:11;;;;;;;1.60;1.50;;;23.40;99.90;;;;;;493284;241;29186;-71
2022/08/01 09:43:11;;;;;;;1.40;1.30;;;23.30;99.90;;;;;;493196;241;29209;-69
2022/08/01 09:45:12;;;;;;;1.63;1.53;;;23.40;99.90;;;;;;493264;241;28740;-70
2022/08/01 09:47:13;;;;;;;1.40;1.30;;;23.60;99.90;;;;;;493182;241;28695;-70
2022/08/01 09:49:14;;;;;;;1.53;1.43;;;23.60;99.90;;;;;;493297;241;28713;-70
2022/08/01 09:51:16;;;;;;;1.57;1.47;;;23.50;99.90;;;;;;493276;241;28696;-72
2022/08/01 09:53:17;;;;;;;1.50;1.40;;;23.20;99.90;;;;;;493234;241;28666;-69
2022/08/01 09:55:18;;;;;;;1.33;1.33;;;23.00;99.90;;;;;;493273;241;28701;-69
2022/08/01 09:57:19;;;;;;;1.53;1.43;;;22.90;99.90;;;;;;493240;241;28668;-69
2022/08/01 09:59:21;;;;;;;1.80;1.70;;;22.90;99.90;;;;;;493249;241;28737;-69
2022/08/01 10:01:22;;;;;;;1.53;1.40;;;23.00;99.90;;;;;;493285;241;28794;-73
2022/08/01 10:03:23;;;;;;;1.97;1.40;;;23.20;99.90;;;;;;493272;241;29228;-70
2022/08/01 10:05:24;;;;;;;1.03;1.03;;;23.30;99.90;;;;;;493260;241;29204;-70
2022/08/01 10:07:26;;;;;;;1.23;1.20;;;23.30;99.90;;;;;;493178;241;29225;-69
2022/08/01 10:09:27;;;;;;;1.27;1.27;;;23.20;99.90;;;;;;493248;241;28798;-70
2022/08/01 10:11:28;;;;;;;1.20;1.20;;;23.40;99.90;;;;;;493287;241;28794;-71
2022/08/01 10:13:29;;;;;;;1.40;1.30;;;23.50;99.90;;;;;;493260;241;28743;-70
2022/08/01 10:15:31;;;;;;;1.40;1.20;;;23.20;99.90;;;;;;493255;241;28717;-70
2022/08/01 10:17:32;;;;;;;3.13;1.37;;;23.40;99.90;;;;;;493081;241;28759;-69
2022/08/01 10:19:33;;;;;;;1.43;1.33;;;23.40;99.90;;;;;;493249;241;28796;-70
2022/08/01 10:21:35;;;;;;;1.57;1.47;;;23.30;99.90;;;;;;493269;241;28711;-73
2022/08/01 10:23:36;;;;;;;1.40;1.30;;;23.10;99.90;;;;;;493299;241;28672;-69
2022/08/01 10:25:37;;;;;;;1.37;1.30;;;23.10;99.90;;;;;;493265;241;28711;-69
2022/08/01 10:27:38;;;;;;;1.20;1.20;;;23.40;99.90;;;;;;493231;241;29136;-69
2022/08/01 10:29:40;;;;;;;1.30;1.20;;;23.40;99.90;;;;;;493242;241;29236;-69
2022/08/01 10:31:41;;;;;;;1.80;1.70;;;23.30;99.90;;;;;;493303;241;29306;-70